Time;durP1;ratioP1;P1;durP2;ratioP2;P2;SDS_P1;SDS_P2;PMS_P1;PMS_P2;Temp;Humidity;BMP_temperature;BMP_pressure;BME280_temperature;BME280_humidity;BME280_pressure;Samples;Min_cycle;Max_cycle;Signal;HPM_P1;HPM_P2
2023/10/11 00:00:44;;;;;;;9.88;5.68;;;;;;;11.46;100.00;96724.25;6309080;22;20006;-80
2023/10/11 00:03:16;;;;;;;8.85;5.30;;;;;;;11.45;100.00;96717.31;6308564;22;20079;-79
2023/10/11 00:05:43;;;;;;;11.65;5.30;;;;;;;11.45;100.00;96729.63;6308781;22;20080;-80
2023/10/11 00:08:18;;;;;;;11.90;4.90;;;;;;;11.40;100.00;96729.16;6309096;22;19998;-79
2023/10/11 00:10:49;;;;;;;;;;;;;;;11.36;100.00;96719.84;6309248;22;20013;-79
2023/10/11 00:13:15;;;;;;;12.90;5.68;;;;;;;11.34;100.00;96730.47;6308463;22;20289;-79
2023/10/11 00:15:51;;;;;;;9.65;5.07;;;;;;;11.32;100.00;96733.25;6308330;22;20003;-79
2023/10/11 00:18:18;;;;;;;12.38;6.07;;;;;;;11.32;100.00;96725.34;6308280;22;19999;-79
2023/10/11 00:23:11;;;;;;;11.18;5.43;;;;;;;11.27;100.00;96734.56;6307726;22;20405;-80
2023/10/11 00:25:39;;;;;;;17.63;4.88;;;;;;;11.27;100.00;96732.78;6281687;22;20413;-79
2023/10/11 00:28:07;;;;;;;13.77;5.22;;;;;;;11.26;100.00;96725.00;6309184;22;20002;-80
2023/10/11 00:30:38;;;;;;;14.02;5.43;;;;;;;11.23;100.00;96741.06;6308354;22;19999;-79
2023/10/11 00:33:04;;;;;;;10.43;5.95;;;;;;;11.22;100.00;96742.84;6308530;22;20074;-79
2023/10/11 00:35:32;;;;;;;10.38;5.60;;;;;;;11.20;100.00;96736.84;6307578;22;20011;-79
2023/10/11 00:38:00;;;;;;;10.75;5.63;;;;;;;11.19;100.00;96740.44;6310220;22;20031;-80
2023/10/11 00:40:27;;;;;;;9.43;5.35;;;;;;;11.17;100.00;96745.00;6309596;22;20459;-79
2023/10/11 00:42:53;;;;;;;14.68;6.32;;;;;;;11.07;100.00;96734.34;6307646;22;20056;-80
2023/10/11 00:45:22;;;;;;;13.95;5.10;;;;;;;11.04;100.00;96737.22;6308932;22;20074;-79
2023/10/11 00:47:53;;;;;;;13.07;6.10;;;;;;;11.04;100.00;96734.56;6310484;22;19999;-79
2023/10/11 00:50:21;;;;;;;12.65;5.55;;;;;;;11.05;100.00;96725.72;6309805;22;19999;-79
2023/10/11 00:52:48;;;;;;;13.82;5.80;;;;;;;11.06;100.00;96737.09;6283382;22;19999;-79
2023/10/11 00:55:23;;;;;;;10.13;5.75;;;;;;;11.04;100.00;96724.03;6282567;22;20007;-79
2023/10/11 00:57:49;;;;;;;11.63;6.05;;;;;;;11.02;100.00;96721.50;6310560;22;20007;-79
2023/10/11 01:00:19;;;;;;;10.93;5.60;;;;;;;10.96;100.00;96719.34;6283011;22;20003;-79
2023/10/11 01:02:47;;;;;;;14.18;6.15;;;;;;;10.94;100.00;96712.50;6309670;22;20094;-79
2023/10/11 01:05:13;;;;;;;13.07;6.10;;;;;;;10.93;100.00;96721.38;6310035;22;20029;-80
2023/10/11 01:07:39;;;;;;;11.32;6.35;;;;;;;10.93;100.00;96714.31;6310272;22;20003;-79
2023/10/11 01:10:08;;;;;;;8.07;5.28;;;;;;;10.94;100.00;96721.28;6309877;22;20060;-79
2023/10/11 01:12:40;;;;;;;11.88;6.00;;;;;;;10.95;100.00;96708.97;6282728;22;19995;-79
2023/10/11 01:15:11;;;;;;;12.32;6.13;;;;;;;10.94;100.00;96709.88;6282837;22;20498;-79
2023/10/11 01:17:38;;;;;;;11.95;5.93;;;;;;;10.90;100.00;96711.94;6310055;22;20015;-79
2023/10/11 01:20:13;;;;;;;8.35;5.43;;;;;;;10.84;100.00;96710.59;6309778;22;19995;-79
2023/10/11 01:22:42;;;;;;;11.25;6.28;;;;;;;10.82;100.00;96704.63;6283635;22;20007;-79
2023/10/11 01:25:08;;;;;;;8.70;5.45;;;;;;;10.79;100.00;96709.28;6310493;22;20006;-79
2023/10/11 01:27:36;;;;;;;10.93;5.75;;;;;;;10.74;100.00;96704.38;6310235;22;19991;-79
2023/10/11 01:30:07;;;;;;;11.55;6.13;;;;;;;10.72;100.00;96701.00;6310388;22;20002;-79
2023/10/11 01:32:37;;;;;;;12.55;5.82;;;;;;;10.71;100.00;96704.59;6310117;22;20002;-80
2023/10/11 01:35:05;;;;;;;11.77;6.05;;;;;;;10.72;100.00;96690.47;6309869;22;20010;-79
2023/10/11 01:37:41;;;;;;;12.05;5.60;;;;;;;10.73;100.00;96694.81;6310026;22;19999;-79
2023/10/11 01:40:09;;;;;;;11.90;5.97;;;;;;;10.74;100.00;96684.13;6309607;22;20070;-79
2023/10/11 01:42:36;;;;;;;16.98;6.30;;;;;;;10.71;100.00;96680.88;6309685;22;19999;-79
2023/10/11 01:45:03;;;;;;;11.80;5.88;;;;;;;10.69;100.00;96674.91;6310040;22;20006;-80
2023/10/11 01:47:29;;;;;;;15.02;5.93;;;;;;;10.67;100.00;96667.16;6310054;22;19995;-79
2023/10/11 01:49:54;;;;;;;11.75;6.00;;;;;;;10.69;100.00;96672.28;6310508;22;20009;-79
2023/10/11 01:52:20;;;;;;;18.70;6.38;;;;;;;10.66;100.00;96673.38;6310026;22;20003;-79
2023/10/11 01:54:47;;;;;;;9.85;5.78;;;;;;;10.65;100.00;96673.47;6309977;22;20003;-80
2023/10/11 01:57:12;;;;;;;14.23;6.47;;;;;;;10.65;100.00;96662.94;6309423;22;20027;-79
2023/10/11 01:59:38;;;;;;;10.07;5.28;;;;;;;10.67;100.00;96668.94;6282986;22;20058;-79
2023/10/11 02:02:03;;;;;;;11.55;6.18;;;;;;;10.67;100.00;96668.94;6309709;22;19999;-80
2023/10/11 02:04:30;;;;;;;7.30;5.32;;;;;;;10.67;100.00;96659.25;6308853;22;20031;-79
2023/10/11 02:06:57;;;;;;;9.98;5.80;;;;;;;10.67;100.00;96668.94;6282605;22;20010;-80
2023/10/11 02:09:23;;;;;;;13.75;5.97;;;;;;;10.60;100.00;96672.03;6282767;22;20019;-79
2023/10/11 02:11:52;;;;;;;12.15;6.15;;;;;;;10.54;100.00;96669.88;6309577;22;20010;-79
2023/10/11 02:14:19;;;;;;;14.90;6.00;;;;;;;10.52;100.00;96669.16;6310053;22;20073;-79
2023/10/11 02:16:45;;;;;;;8.73;5.72;;;;;;;10.52;100.00;96665.69;6309699;22;20014;-79
2023/10/11 02:19:15;;;;;;;10.82;5.80;;;;;;;10.50;100.00;96663.19;6282739;22;20007;-80
2023/10/11 02:21:43;;;;;;;15.55;5.65;;;;;;;10.49;100.00;96665.91;6310076;22;20015;-79
2023/10/11 02:24:10;;;;;;;10.88;5.35;;;;;;;10.48;100.00;96659.81;6309867;22;20048;-79
2023/10/11 02:26:35;;;;;;;12.15;6.03;;;;;;;10.45;100.00;96660.03;6310242;22;20002;-80
2023/10/11 02:29:06;;;;;;;10.38;6.25;;;;;;;10.44;100.00;96663.63;6310054;22;19995;-80
2023/10/11 02:31:33;;;;;;;13.75;5.78;;;;;;;10.44;100.00;96666.25;6310654;22;20018;-79
2023/10/11 02:34:14;;;;;;;13.07;5.93;;;;;;;10.38;100.00;96664.91;6312006;22;20006;-79
2023/10/11 02:36:44;;;;;;;13.15;6.10;;;;;;;10.35;100.00;96667.78;6311779;22;20003;-79
2023/10/11 02:39:17;;;;;;;13.68;6.47;;;;;;;10.34;100.00;96671.34;6311467;22;20091;-79
2023/10/11 02:41:58;;;;;;;8.48;6.20;;;;;;;10.31;100.00;96664.56;6311446;22;19999;-79
2023/10/11 02:44:26;;;;;;;13.63;6.28;;;;;;;10.31;100.00;96659.28;6311888;22;20003;-79
2023/10/11 02:46:52;;;;;;;16.92;6.47;;;;;;;10.35;100.00;96664.31;6284219;22;20006;-79
2023/10/11 02:49:21;;;;;;;14.48;6.22;;;;;;;10.32;100.00;96655.69;6311995;22;20006;-79
2023/10/11 02:51:55;;;;;;;14.75;5.65;;;;;;;10.27;100.00;96662.25;6284418;22;20041;-80
2023/10/11 02:54:21;;;;;;;15.00;6.13;;;;;;;10.24;100.00;96671.22;6311763;22;20003;-79
2023/10/11 02:56:47;;;;;;;12.00;5.97;;;;;;;10.23;100.00;96661.63;6311121;22;20294;-79
2023/10/11 02:59:19;;;;;;;12.77;5.65;;;;;;;10.24;100.00;96665.94;6311234;22;20010;-79
2023/10/11 03:02:01;;;;;;;12.20;6.07;;;;;;;10.21;100.00;96668.81;6311299;22;20003;-79
2023/10/11 03:04:27;;;;;;;12.02;5.68;;;;;;;10.21;100.00;96663.56;6311203;22;20419;-80
2023/10/11 03:06:53;;;;;;;11.68;6.18;;;;;;;10.18;100.00;96669.06;6311704;22;20038;-79
2023/10/11 03:09:19;;;;;;;17.08;6.57;;;;;;;10.18;100.00;96669.06;6311768;22;20010;-79
2023/10/11 03:11:45;;;;;;;13.13;6.25;;;;;;;10.17;100.00;96662.97;6311370;22;20003;-79
2023/10/11 03:14:15;;;;;;;12.30;5.82;;;;;;;10.18;100.00;96663.78;6310648;22;20007;-79
2023/10/11 03:16:43;;;;;;;12.45;5.82;;;;;;;10.11;100.00;96663.41;6311525;22;20006;-79
2023/10/11 03:19:11;;;;;;;19.52;5.78;;;;;;;10.08;100.00;96666.28;6310856;22;20015;-79
2023/10/11 03:21:37;;;;;;;11.02;6.10;;;;;;;10.05;100.00;96663.88;6310336;22;19995;-79
2023/10/11 03:24:06;;;;;;;11.38;5.63;;;;;;;10.06;100.00;96656.81;6311141;22;19999;-80
2023/10/11 03:26:32;;;;;;;9.25;5.75;;;;;;;10.07;100.00;96655.88;6310917;22;20003;-80
2023/10/11 03:29:05;;;;;;;12.68;5.93;;;;;;;10.02;100.00;96657.03;6311253;22;20094;-79
2023/10/11 03:31:40;;;;;;;13.32;5.57;;;;;;;10.01;100.00;96659.81;6310336;22;20219;-79
2023/10/11 03:34:12;;;;;;;12.45;6.15;;;;;;;10.02;100.00;96658.84;6284027;22;20431;-79
2023/10/11 03:36:52;;;;;;;10.85;5.47;;;;;;;10.04;100.00;96656.94;6311432;22;20003;-80
2023/10/11 03:39:28;;;;;;;11.00;5.90;;;;;;;10.07;100.00;96666.41;6311168;22;20007;-79
2023/10/11 03:42:06;;;;;;;11.70;6.03;;;;;;;10.06;100.00;96668.19;6310561;22;20030;-79
2023/10/11 03:44:35;;;;;;;16.08;6.20;;;;;;;10.06;100.00;96665.56;6286947;22;19995;-79
2023/10/11 03:47:08;;;;;;;20.55;6.97;;;;;;;10.07;100.00;96671.66;6283699;22;20065;-80
2023/10/11 03:52:04;;;;;;;15.02;9.43;;;;;;;10.10;100.00;96672.25;6311067;22;20053;-79
2023/10/11 03:54:30;;;;;;;13.75;7.40;;;;;;;10.12;100.00;96664.25;6285042;22;20026;-79
2023/10/11 03:56:55;;;;;;;10.85;6.50;;;;;;;10.15;100.00;96669.28;6310331;22;20049;-79
2023/10/11 03:59:28;;;;;;;11.60;5.93;;;;;;;10.13;100.00;96669.38;6284331;22;20014;-79
2023/10/11 04:01:55;;;;;;;11.95;5.72;;;;;;;10.12;100.00;96664.25;6309885;22;20413;-78
2023/10/11 04:04:21;;;;;;;12.95;6.82;;;;;;;10.08;100.00;96663.63;6311084;22;20011;-79
2023/10/11 04:07:05;;;;;;;11.57;6.28;;;;;;;10.05;100.00;96669.13;6311022;22;19999;-78
2023/10/11 04:09:33;;;;;;;10.52;6.07;;;;;;;9.99;100.00;96670.44;6283610;22;20052;-79
2023/10/11 04:12:00;;;;;;;14.60;6.90;;;;;;;9.95;100.00;96666.34;6310703;22;20279;-77
2023/10/11 04:14:39;;;;;;;17.63;6.18;;;;;;;9.96;100.00;96664.56;6311056;22;19995;-79
2023/10/11 04:17:07;;;;;;;12.88;6.13;;;;;;;9.94;100.00;96672.56;6310294;22;19999;-80
2023/10/11 04:19:32;;;;;;;15.35;5.82;;;;;;;9.91;100.00;96670.16;6310764;22;20027;-79
2023/10/11 04:22:12;;;;;;;9.25;5.45;;;;;;;9.88;100.00;96670.41;6310615;22;20006;-80
2023/10/11 04:24:38;;;;;;;13.82;6.05;;;;;;;9.81;100.00;96670.00;6310848;22;19998;-80
2023/10/11 04:29:51;;;;;;;17.05;7.55;;;;;;;9.77;100.00;96665.94;6310756;22;20018;-79
2023/10/11 04:35:21;;;;;;;16.33;10.10;;;;;;;9.77;100.00;96672.97;6241991;22;20520;-79
2023/10/11 04:38:03;;;;;;;17.88;7.68;;;;;;;9.75;100.00;96673.91;6310855;22;20006;-79
2023/10/11 04:43:05;;;;;;;13.40;6.75;;;;;;;9.69;100.00;96671.75;6310488;22;20039;-80
2023/10/11 04:45:44;;;;;;;9.32;5.90;;;;;;;9.66;100.00;96666.72;6284509;22;20022;-79
2023/10/11 04:48:30;;;;;;;9.23;5.80;;;;;;;9.68;100.00;96677.09;6310569;22;19999;-79
2023/10/11 04:53:56;;;;;;;12.13;6.03;;;;;;;9.58;100.00;96675.16;6309483;22;20029;-79
2023/10/11 04:59:13;;;;;;;11.60;6.43;;;;;;;9.55;100.00;96679.78;6310359;22;20003;-80
2023/10/11 05:04:26;;;;;;;14.33;7.50;;;;;;;9.49;100.00;96683.69;6310439;22;20027;-80
2023/10/11 05:06:53;;;;;;;14.85;6.25;;;;;;;9.51;100.00;96689.72;6310343;22;20325;-79
2023/10/11 05:11:58;;;;;;;12.52;6.93;;;;;;;9.45;100.00;96688.34;6310207;22;20007;-80
2023/10/11 05:14:30;;;;;;;9.35;5.50;;;;;;;9.46;100.00;96690.03;6309946;22;20456;-80
2023/10/11 05:19:40;;;;;;;18.60;7.05;;;;;;;9.44;100.00;96691.06;6309767;22;20008;-79
2023/10/11 05:22:08;;;;;;;11.82;7.57;;;;;;;9.44;100.00;96688.44;6308566;22;20021;-79
2023/10/11 05:25:12;;;;;;;14.05;6.60;;;;;;;9.40;100.00;96693.09;6309669;22;20013;-79
2023/10/11 05:32:49;;;;;;;18.75;6.72;;;;;;;9.26;100.00;96690.63;6310329;22;20003;-80
2023/10/11 05:51:39;;;;;;;15.90;6.10;;;;;;;9.28;100.00;96688.72;6306870;22;20045;-79
2023/10/11 05:54:08;;;;;;;14.77;5.97;;;;;;;9.31;100.00;96696.38;6310789;22;20010;-80
2023/10/11 05:56:34;;;;;;;14.80;6.75;;;;;;;9.31;100.00;96702.50;6310275;22;20007;-79
2023/10/11 05:59:04;;;;;;;16.17;6.75;;;;;;;9.30;100.00;96699.97;6308964;22;20448;-78
2023/10/11 06:01:30;;;;;;;15.43;6.53;;;;;;;9.30;100.00;96706.06;6308376;22;20425;-79
2023/10/11 06:03:57;;;;;;;13.90;6.57;;;;;;;9.30;100.00;96711.31;6309531;22;20019;-80
2023/10/11 06:06:24;;;;;;;10.98;5.82;;;;;;;9.35;100.00;96715.41;6309480;22;20070;-78
2023/10/11 06:08:59;;;;;;;12.23;6.38;;;;;;;9.36;100.00;96710.03;6312283;22;20027;-80
2023/10/11 06:11:29;;;;;;;12.43;6.07;;;;;;;9.39;100.00;96716.88;6311304;22;20066;-79
2023/10/11 06:14:04;;;;;;;12.95;6.60;;;;;;;9.31;100.00;96722.66;6313501;22;19995;-79
2023/10/11 06:16:37;;;;;;;12.67;6.80;;;;;;;9.35;100.00;96718.03;6286011;22;19999;-80
2023/10/11 06:19:18;;;;;;;17.50;7.35;;;;;;;9.36;100.00;96725.78;6311960;22;20253;-80
2023/10/11 06:21:57;;;;;;;15.60;6.82;;;;;;;9.34;100.00;96732.94;6312771;22;20003;-79
2023/10/11 06:24:25;;;;;;;17.02;7.50;;;;;;;9.36;100.00;96727.59;6311140;22;20013;-79
2023/10/11 06:26:55;;;;;;;18.25;7.43;;;;;;;9.39;100.00;96730.81;6285072;22;20021;-79
2023/10/11 06:29:24;;;;;;;14.25;7.07;;;;;;;9.37;100.00;96724.84;6310381;22;20358;-80
2023/10/11 06:31:50;;;;;;;24.65;7.97;;;;;;;9.36;100.00;96736.31;6311276;22;20003;-83
2023/10/11 06:34:32;;;;;;;22.08;7.28;;;;;;;9.36;100.00;96731.03;6310626;22;20400;-81
2023/10/11 06:36:58;;;;;;;19.30;7.78;;;;;;;9.35;100.00;96732.00;6283457;22;19995;-78
2023/10/11 06:39:34;;;;;;;14.77;7.03;;;;;;;9.35;100.00;96734.63;6311254;22;20133;-79
2023/10/11 06:42:12;;;;;;;18.40;6.88;;;;;;;9.38;100.00;96733.59;6284193;22;20007;-79
2023/10/11 06:44:42;;;;;;;17.60;6.75;;;;;;;9.38;100.00;96742.28;6310936;22;20413;-79
2023/10/11 06:47:11;;;;;;;20.02;6.85;;;;;;;9.40;100.00;96747.44;6312001;22;19995;-79
2023/10/11 06:49:40;;;;;;;14.45;6.53;;;;;;;9.44;100.00;96741.88;6311618;22;19991;-79
2023/10/11 06:52:15;;;;;;;13.38;6.72;;;;;;;9.48;100.00;96739.84;6311439;22;20388;-79
2023/10/11 06:55:07;;;;;;;13.75;6.50;;;;;;;9.49;100.00;96741.53;6284411;22;20153;-79
2023/10/11 06:57:26;;;;;;;11.13;6.55;;;;;;;9.51;100.00;96744.06;6308522;22;20003;-79
2023/10/11 06:59:56;;;;;;;15.70;6.72;;;;;;;9.56;100.00;96747.19;6284303;22;20010;-79
2023/10/11 07:02:47;;;;;;;13.50;6.43;;;;;;;9.56;100.00;96744.56;6283503;22;20368;-76
2023/10/11 07:05:17;;;;;;;18.40;6.57;;;;;;;9.65;100.00;96745.69;6310128;22;20017;-75
2023/10/11 07:07:49;;;;;;;14.32;6.57;;;;;;;9.69;100.00;96753.25;6311145;22;19995;-76
2023/10/11 07:10:28;;;;;;;16.40;6.78;;;;;;;9.74;100.00;96751.13;6310222;22;20409;-76
2023/10/11 07:13:05;;;;;;;11.93;6.57;;;;;;;9.76;100.00;96748.41;6283716;22;20014;-76
2023/10/11 07:15:45;;;;;;;12.55;6.90;;;;;;;9.81;100.00;96748.06;6311059;22;19999;-76
2023/10/11 07:18:25;;;;;;;14.82;6.78;;;;;;;9.84;100.00;96743.41;6310674;22;20007;-76
2023/10/11 07:21:10;;;;;;;15.48;7.10;;;;;;;9.85;100.00;96750.34;6310613;22;20022;-76
2023/10/11 07:26:31;;;;;;;15.07;6.15;;;;;;;9.88;100.00;96749.31;6311074;22;20020;-77
2023/10/11 07:29:02;;;;;;;13.23;6.75;;;;;;;9.93;100.00;96751.56;6310847;22;20056;-77
2023/10/11 07:31:35;;;;;;;12.35;6.93;;;;;;;9.95;100.00;96753.16;6310888;22;20000;-77
2023/10/11 07:34:06;;;;;;;14.52;7.22;;;;;;;9.96;100.00;96757.47;6285115;22;20086;-77
2023/10/11 07:36:37;;;;;;;15.20;6.60;;;;;;;10.00;100.00;96752.84;6283700;22;20415;-80
2023/10/11 07:42:18;;;;;;;15.15;7.75;;;;;;;10.08;100.00;96747.84;6310769;22;20011;-80
2023/10/11 07:44:44;;;;;;;15.13;6.75;;;;;;;10.18;100.00;96748.84;6310111;22;20069;-80
2023/10/11 07:47:15;;;;;;;13.23;7.60;;;;;;;10.31;100.00;96754.03;6311107;22;20734;-80
2023/10/11 07:49:44;;;;;;;16.73;6.60;;;;;;;10.50;100.00;96757.13;6311164;22;20015;-80
2023/10/11 07:52:13;;;;;;;13.18;6.40;;;;;;;10.65;100.00;96749.84;6311295;22;20023;-80
2023/10/11 07:54:43;;;;;;;17.55;6.03;;;;;;;10.82;100.00;96756.44;6310728;22;20013;-80
2023/10/11 07:57:13;;;;;;;11.98;6.03;;;;;;;10.97;100.00;96751.81;6310629;22;20060;-80
2023/10/11 07:59:39;;;;;;;13.25;5.80;;;;;;;11.14;100.00;96746.06;6310621;22;20000;-80
2023/10/11 08:02:09;;;;;;;15.50;6.30;;;;;;;11.34;100.00;96746.31;6310653;22;20011;-80
2023/10/11 08:04:44;;;;;;;13.10;6.30;;;;;;;11.51;100.00;96746.78;6310319;22;20331;-80
2023/10/11 08:07:12;;;;;;;9.65;5.20;;;;;;;11.69;100.00;96740.03;6283775;22;20436;-80
2023/10/11 08:09:46;;;;;;;10.95;5.93;;;;;;;11.90;100.00;96744.53;6310395;22;19995;-80
2023/10/11 08:12:16;;;;;;;10.82;5.60;;;;;;;12.11;100.00;96739.34;6311013;22;20023;-80
2023/10/11 08:14:44;;;;;;;14.70;5.70;;;;;;;12.27;100.00;96733.66;6310127;22;20010;-79
2023/10/11 08:17:19;;;;;;;10.90;4.97;;;;;;;12.44;100.00;96729.59;6283274;22;20316;-80
2023/10/11 08:19:46;;;;;;;8.23;4.85;;;;;;;12.62;100.00;96723.75;6310994;22;20010;-79
2023/10/11 08:22:14;;;;;;;12.50;4.82;;;;;;;12.78;100.00;96712.72;6310761;22;19999;-79
2023/10/11 08:24:56;;;;;;;11.07;5.97;;;;;;;12.93;100.00;96699.13;6310796;22;20003;-80
2023/10/11 08:27:29;;;;;;;12.48;5.75;;;;;;;13.03;100.00;96700.03;6310016;22;20042;-80
2023/10/11 08:32:42;;;;;;;13.07;4.97;;;;;;;13.16;100.00;96711.22;6310998;22;20309;-79
2023/10/11 08:35:09;;;;;;;10.13;4.88;;;;;;;13.25;100.00;96703.44;6310090;22;20397;-79
2023/10/11 08:37:35;;;;;;;12.77;5.05;;;;;;;13.40;100.00;96693.34;6310608;22;20316;-79
2023/10/11 08:40:10;;;;;;;8.45;4.40;;;;;;;13.57;100.00;96687.44;6310598;22;19995;-79
2023/10/11 08:42:37;;;;;;;10.82;6.93;;;;;;;13.79;100.00;96679.38;6310872;22;20074;-79
2023/10/11 08:45:03;;;;;;;12.50;5.75;;;;;;;13.96;100.00;96675.22;6310475;22;19999;-79
2023/10/11 08:47:29;;;;;;;11.48;7.82;;;;;;;14.06;100.00;96673.38;6283246;22;20059;-78
2023/10/11 08:49:55;;;;;;;9.60;4.93;;;;;;;14.17;100.00;96661.81;6283122;22;20007;-80
2023/10/11 08:52:28;;;;;;;10.50;4.82;;;;;;;14.28;100.00;96660.84;6309989;22;20038;-79
2023/10/11 08:54:53;;;;;;;13.95;5.25;;;;;;;14.37;100.00;96656.50;6309989;22;20079;-80
2023/10/11 08:57:23;;;;;;;12.43;5.05;;;;;;;14.43;100.00;96653.28;6310000;22;19999;-79
2023/10/11 08:59:50;;;;;;;8.27;4.47;;;;;;;14.49;100.00;96657.19;6310060;22;20031;-79
2023/10/11 09:02:17;;;;;;;9.07;5.00;;;;;;;14.51;100.00;96636.66;6281244;22;20401;-79
2023/10/11 09:07:51;;;;;;;16.85;4.50;;;;;;;14.58;100.00;96630.66;6310243;22;20006;-79
2023/10/11 09:10:28;;;;;;;10.75;5.00;;;;;;;14.67;100.00;96631.59;6258645;22;20031;-79
2023/10/11 09:12:59;;;;;;;12.07;4.50;;;;;;;14.81;100.00;96626.84;6310188;22;19999;-80
2023/10/11 09:15:42;;;;;;;10.82;4.18;;;;;;;14.95;100.00;96613.09;6283320;22;19999;-79
2023/10/11 09:18:18;;;;;;;14.10;4.53;;;;;;;15.08;100.00;96602.16;6310673;22;20305;-79
2023/10/11 09:20:55;;;;;;;12.07;4.70;;;;;;;15.20;100.00;96592.19;6309947;22;20024;-79
2023/10/11 09:23:34;;;;;;;15.00;5.35;;;;;;;15.36;100.00;96588.03;6310275;22;20002;-79
2023/10/11 09:25:59;;;;;;;12.50;4.35;;;;;;;15.49;100.00;96575.25;6309286;22;19999;-79
2023/10/11 09:28:26;;;;;;;13.95;4.95;;;;;;;15.56;100.00;96565.69;6310125;22;20032;-80
2023/10/11 09:31:15;;;;;;;9.43;4.20;;;;;;;15.68;100.00;96563.63;6309970;22;20022;-80
2023/10/11 09:33:49;;;;;;;11.13;4.10;;;;;;;15.78;100.00;96568.88;6310267;22;20003;-79
2023/10/11 09:36:19;;;;;;;14.93;4.97;;;;;;;15.95;100.00;96561.06;6310032;22;20396;-79
2023/10/11 09:38:52;;;;;;;13.27;4.35;;;;;;;16.10;100.00;96561.34;6309640;22;20038;-79
2023/10/11 09:41:21;;;;;;;9.10;4.70;;;;;;;16.21;100.00;96555.75;6282987;22;20000;-79
2023/10/11 09:43:48;;;;;;;8.02;4.22;;;;;;;16.26;100.00;96564.09;6312620;22;20435;-77
2023/10/11 09:46:13;;;;;;;16.75;4.93;;;;;;;16.30;100.00;96561.94;6311943;22;19999;-77
2023/10/11 09:48:40;;;;;;;7.50;4.10;;;;;;;16.40;100.00;96557.38;6286184;22;20194;-77
2023/10/11 09:51:13;;;;;;;11.57;4.35;;;;;;;16.56;100.00;96556.63;6312332;22;19999;-77
2023/10/11 09:53:49;;;;;;;9.10;4.22;;;;;;;16.66;100.00;96553.84;6285837;22;20302;-77
2023/10/11 09:56:48;;;;;;;11.07;4.65;;;;;;;16.70;100.00;96557.03;6312672;22;20393;-77
2023/10/11 09:59:22;;;;;;;8.55;4.80;;;;;;;16.83;100.00;96565.38;6312704;22;20049;-78
2023/10/11 10:01:55;;;;;;;11.00;4.05;;;;;;;17.06;100.00;96569.34;6312390;22;20313;-77
2023/10/11 10:04:50;;;;;;;11.43;4.90;;;;;;;17.24;100.00;96582.50;6313132;22;20015;-77
2023/10/11 10:07:28;;;;;;;18.63;5.05;;;;;;;17.32;100.00;96575.38;6314485;22;20007;-77
2023/10/11 10:09:59;;;;;;;13.27;4.78;;;;;;;17.36;100.00;96575.91;6317160;22;20003;-77
2023/10/11 10:12:32;;;;;;;12.02;4.65;;;;;;;17.36;100.00;96575.91;6316974;22;20011;-78
2023/10/11 10:15:57;;;;;;;12.20;5.82;;;;;;;17.37;100.00;96569.59;6317006;22;19995;-78
2023/10/11 10:18:00;;;;;;;13.35;4.68;;;;;;;17.43;100.00;96571.59;6301214;22;20013;-78
2023/10/11 10:20:32;;;;;;;15.95;5.43;;;;;;;17.60;100.00;96574.28;6311784;22;20002;-77
2023/10/11 10:23:16;;;;;;;13.45;4.13;;;;;;;17.83;100.00;96573.63;6311928;22;20029;-77
2023/10/11 10:25:48;;;;;;;12.80;4.53;;;;;;;17.95;100.00;96568.81;6311733;22;20354;-77
2023/10/11 10:28:32;;;;;;;10.20;4.35;;;;;;;18.00;100.00;96566.47;6311814;22;20049;-77
2023/10/11 10:31:16;;;;;;;12.10;4.53;;;;;;;18.16;100.00;96562.97;6311485;22;20006;-78
2023/10/11 10:33:43;;;;;;;10.40;4.67;;;;;;;18.32;100.00;96562.97;6311773;22;20006;-77
2023/10/11 10:36:17;;;;;;;11.43;4.78;;;;;;;18.47;100.00;96555.09;6311372;22;20293;-77
2023/10/11 10:41:42;;;;;;;16.70;4.93;;;;;;;18.67;100.00;96554.69;6227350;22;20003;-78
2023/10/11 10:44:18;;;;;;;10.25;4.90;;;;;;;18.76;100.00;96550.19;6284603;22;20454;-77
2023/10/11 10:46:54;;;;;;;11.13;4.65;;;;;;;18.88;100.00;96554.09;6311741;22;19999;-78
2023/10/11 10:49:42;;;;;;;10.13;5.13;;;;;;;18.96;100.00;96550.56;6312219;22;19999;-77
2023/10/11 10:52:18;;;;;;;11.00;4.55;;;;;;;19.10;100.00;96551.69;6268832;22;20084;-77
2023/10/11 10:54:56;;;;;;;13.20;4.75;;;;;;;19.27;100.00;96546.28;6284295;22;20006;-78
2023/10/11 10:57:25;;;;;;;11.43;5.20;;;;;;;19.45;100.00;96541.50;6285118;22;19999;-78
2023/10/11 10:59:50;;;;;;;17.45;5.05;;;;;;;19.57;100.00;96546.44;6284168;22;20003;-78
2023/10/11 11:02:19;;;;;;;13.60;4.78;;;;;;;19.71;100.00;96545.66;6311502;22;20050;-78
2023/10/11 11:04:45;;;;;;;9.85;4.85;;;;;;;19.97;100.00;96546.31;6311057;22;20951;-78
2023/10/11 11:07:22;;;;;;;12.02;5.05;;;;;;;20.13;100.00;96537.31;6311387;22;20018;-78
2023/10/11 11:09:49;;;;;;;10.45;4.47;;;;;;;20.35;100.00;96532.94;6311189;22;20058;-78
2023/10/11 11:12:14;;;;;;;11.02;4.80;;;;;;;20.47;100.00;96531.44;6311398;22;20566;-77
2023/10/11 11:14:56;;;;;;;10.32;4.07;;;;;;;20.59;100.00;96534.50;6311458;22;20098;-77
2023/10/11 11:17:42;;;;;;;13.80;4.75;;;;;;;20.73;100.00;96532.00;6310527;22;20026;-77
2023/10/11 11:20:13;;;;;;;13.95;4.63;;;;;;;20.79;100.00;96527.78;6311107;22;20018;-78
2023/10/11 11:22:45;;;;;;;13.02;5.50;;;;;;;20.92;100.00;96521.78;6311556;22;19995;-79
2023/10/11 11:25:34;;;;;;;14.00;4.22;;;;;;;20.99;100.00;96515.47;6310965;22;20006;-79
2023/10/11 11:28:06;;;;;;;14.48;4.75;;;;;;;21.01;100.00;96516.13;6311001;22;20320;-79
2023/10/11 11:30:36;;;;;;;15.55;4.40;;;;;;;21.11;100.00;96521.19;6311489;22;20057;-80
2023/10/11 11:33:13;;;;;;;12.18;4.72;;;;;;;21.13;100.00;96521.84;6311308;22;20010;-78
2023/10/11 11:35:52;;;;;;;10.82;4.25;;;;;;;21.15;100.00;96506.41;6311369;22;20349;-80
2023/10/11 11:38:21;;;;;;;12.73;4.88;;;;;;;21.17;100.00;96506.19;6310969;22;20003;-80
2023/10/11 11:40:59;;;;;;;11.63;4.03;;;;;;;21.19;100.00;96504.16;6311221;22;19999;-78
2023/10/11 11:43:32;;;;;;;12.88;4.75;;;;;;;21.24;100.00;96498.25;6310674;22;20056;-78
2023/10/11 11:46:01;;;;;;;14.27;5.00;;;;;;;21.23;100.00;96493.91;6311192;22;20301;-79
2023/10/11 11:48:28;;;;;;;13.68;4.45;;;;;;;21.20;100.00;96492.44;6310739;22;19995;-79
2023/10/11 11:50:56;;;;;;;10.93;4.25;;;;;;;21.30;100.00;96489.44;6310652;22;20022;-78
2023/10/11 11:53:22;;;;;;;14.02;4.30;;;;;;;21.43;100.00;96484.22;6311414;22;20014;-80
2023/10/11 11:55:48;;;;;;;16.45;4.88;;;;;;;21.53;100.00;96480.38;6310150;22;20301;-79
2023/10/11 11:58:16;;;;;;;16.98;4.55;;;;;;;21.55;100.00;96473.00;6283926;22;20309;-79
2023/10/11 12:00:46;;;;;;;9.18;4.07;;;;;;;21.50;100.00;96470.91;6283384;22;20519;-79
2023/10/11 12:03:12;;;;;;;13.27;4.72;;;;;;;21.50;100.00;96470.06;6310795;22;20019;-80
2023/10/11 12:05:40;;;;;;;12.95;4.72;;;;;;;21.59;100.00;96460.88;6310284;22;20056;-79
2023/10/11 12:08:12;;;;;;;10.80;4.03;;;;;;;21.60;100.00;96460.69;6311010;22;20057;-77
2023/10/11 12:10:37;;;;;;;15.48;4.50;;;;;;;21.65;100.00;96457.47;6310308;22;20007;-77
2023/10/11 12:13:05;;;;;;;9.80;3.75;;;;;;;21.68;100.00;96457.06;6310573;22;19995;-77
2023/10/11 12:15:32;;;;;;;13.70;4.47;;;;;;;21.75;100.00;96454.44;6310584;22;20023;-79
2023/10/11 12:17:58;;;;;;;11.05;4.72;;;;;;;21.80;100.00;96457.38;6310916;22;20007;-78
2023/10/11 12:20:33;;;;;;;13.82;4.72;;;;;;;21.92;100.00;96446.13;6310417;22;19999;-77
2023/10/11 12:23:12;;;;;;;9.60;3.97;;;;;;;21.96;100.00;96445.53;6310832;22;20063;-77
2023/10/11 12:25:38;;;;;;;11.85;4.50;;;;;;;21.92;100.00;96436.22;6310483;22;20007;-78
2023/10/11 12:28:05;;;;;;;12.55;3.70;;;;;;;22.00;100.00;96438.78;6311086;22;20062;-81
2023/10/11 12:30:35;;;;;;;8.88;4.15;;;;;;;22.18;100.00;96437.41;6283121;22;20507;-80
2023/10/11 12:33:09;;;;;;;12.48;3.75;;;;;;;22.25;100.00;96440.13;6310984;22;19995;-79
2023/10/11 12:35:39;;;;;;;10.55;4.57;;;;;;;22.26;100.00;96431.91;6310031;22;20066;-77
2023/10/11 12:38:06;;;;;;;9.75;4.10;;;;;;;22.39;100.00;96430.31;6283868;22;20007;-77
2023/10/11 12:40:34;;;;;;;14.23;4.07;;;;;;;22.56;100.00;96422.78;6309963;22;20003;-77